PWSweather.com
Personal Weather Stations
Station Observations

YeovilGB

Lat: 50.949, Lon: -2.627

Elevation: 70

Station Type: Vantage Pro

http://www.yeovil-weather.me.uk/

Latest ConditionsUpdated 7:10:03 PM GMT Thursday, Oct 18, 2018
Currently Today's Max Today's Min Today's Average
Temperature 52.1°F11.2°C 60.2°F15.7°C 48.9°F9.4°C 54.6°F12.6°C
Dew Point 48.0°F8.9°C 52.9°F11.6°C 46.7°F8.2°C 50.0°F10.0°C
Winds Calm Calm 4.6 mph -7.4 kmh - - 1.2 mph 1.9 kmh
Wind Gusts -- 9.2 mph14.8 kmh - -
Humidity 86% 93% 72% 85%
Pressure 30.31 in1026.4 mb 30.35 in1027.8 mb 30.27 in1025.1 mb -
Hour Temp Dew Point Humidity Winds Wind Gusts Pressure Precip Precip Rate Daily Precip Total
07:10 PM 52.1°F11.2°C 48.0°F8.9°C 86% Calm Calm -- 30.31 in1026.4 mb - 0.00 in0.0 mm 0.00 in0.0 mm
07:00 PM 52.3°F11.3°C 48.2°F9.0°C 86% Calm Calm -- 30.31 in1026.4 mb - 0.00 in0.0 mm 0.00 in0.0 mm
06:50 PM 52.4°F11.3°C 48.4°F9.1°C 86% Calm Calm -- 30.31 in1026.4 mb - 0.00 in0.0 mm 0.00 in0.0 mm
06:30 PM 52.9°F11.6°C 48.8°F9.3°C 86% Calm Calm -- 30.30 in1026.1 mb - 0.00 in0.0 mm 0.00 in0.0 mm
06:20 PM 53.1°F11.7°C 48.8°F9.3°C 85% Calm Calm -- 30.30 in1026.1 mb - 0.00 in0.0 mm 0.00 in0.0 mm
06:10 PM 53.4°F11.9°C 49.0°F9.4°C 85% Calm Calm -- 30.30 in1026.1 mb - 0.00 in0.0 mm 0.00 in0.0 mm
06:00 PM 53.7°F12.1°C 49.0°F9.4°C 84% Calm Calm -- 30.30 in1026.1 mb - 0.00 in0.0 mm 0.00 in0.0 mm
05:50 PM 54.1°F12.3°C 49.4°F9.7°C 84% Calm Calm -- 30.30 in1026.1 mb - 0.00 in0.0 mm 0.00 in0.0 mm
05:40 PM 54.5°F12.5°C 49.4°F9.7°C 83% Calm Calm -- 30.30 in1026.1 mb - 0.00 in0.0 mm 0.00 in0.0 mm
05:30 PM 55.0°F12.8°C 49.6°F9.8°C 82% Calm Calm -- 30.30 in1026.1 mb - 0.00 in0.0 mm 0.00 in0.0 mm
05:20 PM 55.5°F13.1°C 50.0°F10.0°C 82% Calm Calm -- 30.30 in1026.1 mb - 0.00 in0.0 mm 0.00 in0.0 mm
05:10 PM 55.9°F13.3°C 50.2°F10.1°C 81% Calm Calm -- 30.30 in1026.1 mb - 0.00 in0.0 mm 0.00 in0.0 mm
05:00 PM 56.4°F13.6°C 50.3°F10.2°C 80% Calm Calm -- 30.29 in1025.7 mb - 0.00 in0.0 mm 0.00 in0.0 mm
04:50 PM 56.9°F13.8°C 50.4°F10.2°C 79% Calm Calm -- 30.29 in1025.7 mb - 0.00 in0.0 mm 0.00 in0.0 mm
04:40 PM 57.3°F14.1°C 50.5°F10.3°C 78% Calm Calm -- 30.29 in1025.7 mb - 0.00 in0.0 mm 0.00 in0.0 mm
04:30 PM 57.4°F14.1°C 50.6°F10.3°C 78% 1.2 mph NNE1.9 kmh NNE 3.5 mph5.6 kmh 30.29 in1025.7 mb - 0.00 in0.0 mm 0.00 in0.0 mm
04:20 PM 57.7°F14.3°C 50.5°F10.3°C 77% Calm Calm 5.8 mph9.3 kmh 30.29 in1025.7 mb - 0.00 in0.0 mm 0.00 in0.0 mm
04:10 PM 57.8°F14.3°C 50.6°F10.3°C 77% Calm Calm 3.5 mph5.6 kmh 30.29 in1025.7 mb - 0.00 in0.0 mm 0.00 in0.0 mm
04:00 PM 58.0°F14.4°C 50.5°F10.3°C 76% Calm Calm 1.2 mph1.9 kmh 30.29 in1025.7 mb - 0.00 in0.0 mm 0.00 in0.0 mm
03:50 PM 58.2°F14.6°C 50.6°F10.3°C 76% 3.5 mph N5.6 kmh N 5.8 mph9.3 kmh 30.29 in1025.7 mb - 0.00 in0.0 mm 0.00 in0.0 mm
03:40 PM 58.2°F14.6°C 51.0°F10.6°C 77% Calm Calm 3.5 mph5.6 kmh 30.29 in1025.7 mb - 0.00 in0.0 mm 0.00 in0.0 mm
03:30 PM 58.1°F14.5°C 50.2°F10.1°C 75% Calm Calm 4.6 mph7.4 kmh 30.29 in1025.7 mb - 0.00 in0.0 mm 0.00 in0.0 mm
03:20 PM 58.3°F14.6°C 50.4°F10.2°C 75% Calm Calm 5.8 mph9.3 kmh 30.29 in1025.7 mb - 0.00 in0.0 mm 0.00 in0.0 mm
03:10 PM 58.5°F14.7°C 50.6°F10.3°C 75% 1.2 mph NE1.9 kmh NE 3.5 mph5.6 kmh 30.30 in1026.1 mb - 0.00 in0.0 mm 0.00 in0.0 mm
03:00 PM 58.4°F14.7°C 50.5°F10.3°C 75% 2.3 mph NE3.7 kmh NE 9.2 mph14.8 kmh 30.30 in1026.1 mb - 0.00 in0.0 mm 0.00 in0.0 mm
02:50 PM 58.9°F14.9°C 51.3°F10.7°C 76% Calm Calm -- 30.30 in1026.1 mb - 0.00 in0.0 mm 0.00 in0.0 mm
02:40 PM 59.4°F15.2°C 51.8°F11.0°C 76% 2.3 mph N3.7 kmh N 6.9 mph11.1 kmh 30.30 in1026.1 mb - 0.00 in0.0 mm 0.00 in0.0 mm
02:30 PM 59.5°F15.3°C 51.9°F11.1°C 76% Calm Calm 5.8 mph9.3 kmh 30.30 in1026.1 mb - 0.00 in0.0 mm 0.00 in0.0 mm
02:20 PM 59.4°F15.2°C 51.8°F11.0°C 76% 1.2 mph N1.9 kmh N -- 30.30 in1026.1 mb - 0.00 in0.0 mm 0.00 in0.0 mm
02:10 PM 59.4°F15.2°C 50.7°F10.4°C 73% 2.3 mph NE3.7 kmh NE 5.8 mph9.3 kmh 30.30 in1026.1 mb - 0.00 in0.0 mm 0.00 in0.0 mm
02:00 PM 59.5°F15.3°C 50.8°F10.4°C 73% 1.2 mph NNE1.9 kmh NNE 5.8 mph9.3 kmh 30.30 in1026.1 mb - 0.00 in0.0 mm 0.00 in0.0 mm
01:50 PM 59.4°F15.2°C 50.4°F10.2°C 72% 1.2 mph NE1.9 kmh NE 6.9 mph11.1 kmh 30.30 in1026.1 mb - 0.00 in0.0 mm 0.00 in0.0 mm
01:40 PM 59.6°F15.3°C 51.3°F10.7°C 74% 1.2 mph NNE1.9 kmh NNE 8.1 mph13.0 kmh 30.30 in1026.1 mb - 0.00 in0.0 mm 0.00 in0.0 mm
01:30 PM 59.9°F15.5°C 51.2°F10.7°C 73% 2.3 mph N3.7 kmh N 4.6 mph7.4 kmh 30.31 in1026.4 mb - 0.00 in0.0 mm 0.00 in0.0 mm
01:20 PM 60.2°F15.7°C 52.7°F11.5°C 76% Calm Calm 4.6 mph7.4 kmh 30.31 in1026.4 mb - 0.00 in0.0 mm 0.00 in0.0 mm
01:10 PM 60.2°F15.7°C 52.6°F11.4°C 76% 1.2 mph N1.9 kmh N 2.3 mph3.7 kmh 30.31 in1026.4 mb - 0.00 in0.0 mm 0.00 in0.0 mm
01:00 PM 60.1°F15.6°C 52.5°F11.4°C 76% 1.2 mph N1.9 kmh N 5.8 mph9.3 kmh 30.32 in1026.8 mb - 0.00 in0.0 mm 0.00 in0.0 mm
12:50 PM 60.1°F15.6°C 52.9°F11.6°C 77% 2.3 mph ENE3.7 kmh ENE 8.1 mph13.0 kmh 30.32 in1026.8 mb - 0.00 in0.0 mm 0.00 in0.0 mm
12:40 PM 59.8°F15.4°C 52.9°F11.6°C 78% Calm Calm 3.5 mph5.6 kmh 30.32 in1026.8 mb - 0.00 in0.0 mm 0.00 in0.0 mm
12:30 PM 59.8°F15.4°C 52.6°F11.4°C 77% 1.2 mph NNE1.9 kmh NNE 3.5 mph5.6 kmh 30.32 in1026.8 mb - 0.00 in0.0 mm 0.00 in0.0 mm
12:20 PM 59.8°F15.4°C 52.9°F11.6°C 78% 2.3 mph N3.7 kmh N 8.1 mph13.0 kmh 30.32 in1026.8 mb - 0.00 in0.0 mm 0.00 in0.0 mm
12:10 PM 59.5°F15.3°C 52.7°F11.5°C 78% 1.2 mph N1.9 kmh N 5.8 mph9.3 kmh 30.33 in1027.1 mb - 0.00 in0.0 mm 0.00 in0.0 mm
12:00 PM 59.4°F15.2°C 52.5°F11.4°C 78% 1.2 mph N1.9 kmh N 2.3 mph3.7 kmh 30.33 in1027.1 mb - 0.00 in0.0 mm 0.00 in0.0 mm
11:50 AM 59.1°F15.1°C 52.2°F11.2°C 78% 3.5 mph NE5.6 kmh NE 6.9 mph11.1 kmh 30.33 in1027.1 mb - 0.00 in0.0 mm 0.00 in0.0 mm
11:40 AM 58.7°F14.8°C 52.5°F11.4°C 80% 1.2 mph NNE1.9 kmh NNE 5.8 mph9.3 kmh 30.33 in1027.1 mb - 0.00 in0.0 mm 0.00 in0.0 mm
11:30 AM 58.2°F14.6°C 52.1°F11.2°C 80% 1.2 mph N1.9 kmh N 4.6 mph7.4 kmh 30.34 in1027.4 mb - 0.00 in0.0 mm 0.00 in0.0 mm
11:20 AM 58.1°F14.5°C 52.0°F11.1°C 80% 1.2 mph NNE1.9 kmh NNE 3.5 mph5.6 kmh 30.34 in1027.4 mb - 0.00 in0.0 mm 0.00 in0.0 mm
11:10 AM 57.8°F14.3°C 51.7°F10.9°C 80% 1.2 mph NE1.9 kmh NE -- 30.34 in1027.4 mb - 0.00 in0.0 mm 0.00 in0.0 mm
11:00 AM 57.5°F14.2°C 51.7°F10.9°C 81% 2.3 mph NNE3.7 kmh NNE 6.9 mph11.1 kmh 30.34 in1027.4 mb - 0.00 in0.0 mm 0.00 in0.0 mm
10:50 AM 56.7°F13.7°C 51.6°F10.9°C 83% Calm Calm 4.6 mph7.4 kmh 30.34 in1027.4 mb - 0.00 in0.0 mm 0.00 in0.0 mm
10:40 AM 56.3°F13.5°C 50.9°F10.5°C 82% 3.5 mph NNE5.6 kmh NNE 6.9 mph11.1 kmh 30.34 in1027.4 mb - 0.00 in0.0 mm 0.00 in0.0 mm
10:30 AM 56.3°F13.5°C 50.9°F10.5°C 82% 3.5 mph N5.6 kmh N 5.8 mph9.3 kmh 30.34 in1027.4 mb - 0.00 in0.0 mm 0.00 in0.0 mm
10:20 AM 56.2°F13.4°C 50.8°F10.4°C 82% 2.3 mph N3.7 kmh N 8.1 mph13.0 kmh 30.35 in1027.8 mb - 0.00 in0.0 mm 0.00 in0.0 mm
10:10 AM 56.2°F13.4°C 51.1°F10.6°C 83% 3.5 mph NNE5.6 kmh NNE 6.9 mph11.1 kmh 30.35 in1027.8 mb - 0.00 in0.0 mm 0.00 in0.0 mm
10:00 AM 55.8°F13.2°C 50.7°F10.4°C 83% 1.2 mph NNE1.9 kmh NNE 6.9 mph11.1 kmh 30.35 in1027.8 mb - 0.00 in0.0 mm 0.00 in0.0 mm
09:50 AM 55.4°F13.0°C 50.7°F10.4°C 84% 4.6 mph NNW7.4 kmh NNW 8.1 mph13.0 kmh 30.35 in1027.8 mb - 0.00 in0.0 mm 0.00 in0.0 mm
09:40 AM 54.6°F12.6°C 50.5°F10.3°C 86% 1.2 mph N1.9 kmh N 3.5 mph5.6 kmh 30.34 in1027.4 mb - 0.00 in0.0 mm 0.00 in0.0 mm
09:30 AM 54.1°F12.3°C 50.0°F10.0°C 86% 4.6 mph N7.4 kmh N 8.1 mph13.0 kmh 30.35 in1027.8 mb - 0.00 in0.0 mm 0.00 in0.0 mm
09:20 AM 53.9°F12.2°C 49.8°F9.9°C 86% 4.6 mph NNE7.4 kmh NNE 6.9 mph11.1 kmh 30.34 in1027.4 mb - 0.00 in0.0 mm 0.00 in0.0 mm
09:10 AM 53.7°F12.1°C 49.9°F9.9°C 87% 2.3 mph N3.7 kmh N 3.5 mph5.6 kmh 30.34 in1027.4 mb - 0.00 in0.0 mm 0.00 in0.0 mm
09:00 AM 53.4°F11.9°C 50.0°F10.0°C 88% 3.5 mph N5.6 kmh N 4.6 mph7.4 kmh 30.34 in1027.4 mb - 0.00 in0.0 mm 0.00 in0.0 mm
08:50 AM 52.7°F11.5°C 49.9°F9.9°C 90% 1.2 mph N1.9 kmh N 3.5 mph5.6 kmh 30.34 in1027.4 mb - 0.00 in0.0 mm 0.00 in0.0 mm
08:40 AM 51.7°F10.9°C 49.1°F9.5°C 91% Calm Calm -- 30.34 in1027.4 mb - 0.00 in0.0 mm 0.00 in0.0 mm
08:30 AM 50.9°F10.5°C 48.4°F9.1°C 91% 1.2 mph N1.9 kmh N -- 30.34 in1027.4 mb - 0.00 in0.0 mm 0.00 in0.0 mm
08:20 AM 50.7°F10.4°C 48.1°F8.9°C 91% 1.2 mph N1.9 kmh N 2.3 mph3.7 kmh 30.34 in1027.4 mb - 0.00 in0.0 mm 0.00 in0.0 mm
08:10 AM 50.5°F10.3°C 48.0°F8.9°C 91% Calm Calm -- 30.34 in1027.4 mb - 0.00 in0.0 mm 0.00 in0.0 mm
08:00 AM 50.4°F10.2°C 48.2°F9.0°C 92% 3.5 mph N5.6 kmh N 8.1 mph13.0 kmh 30.34 in1027.4 mb - 0.00 in0.0 mm 0.00 in0.0 mm
07:50 AM 50.0°F10.0°C 48.1°F8.9°C 93% Calm Calm 1.2 mph1.9 kmh 30.33 in1027.1 mb - 0.00 in0.0 mm 0.00 in0.0 mm
07:40 AM 49.6°F9.8°C 47.7°F8.7°C 93% 2.3 mph N3.7 kmh N 6.9 mph11.1 kmh 30.33 in1027.1 mb - 0.00 in0.0 mm 0.00 in0.0 mm
07:30 AM 49.2°F9.6°C 47.3°F8.5°C 93% 1.2 mph N1.9 kmh N 4.6 mph7.4 kmh 30.33 in1027.1 mb - 0.00 in0.0 mm 0.00 in0.0 mm
07:20 AM 49.0°F9.4°C 47.1°F8.4°C 93% Calm Calm -- 30.32 in1026.8 mb - 0.00 in0.0 mm 0.00 in0.0 mm
07:10 AM 48.9°F9.4°C 47.0°F8.3°C 93% Calm Calm 2.3 mph3.7 kmh 30.32 in1026.8 mb - 0.00 in0.0 mm 0.00 in0.0 mm
07:00 AM 48.9°F9.4°C 47.0°F8.3°C 93% Calm Calm -- 30.32 in1026.8 mb - 0.00 in0.0 mm 0.00 in0.0 mm
06:50 AM 48.9°F9.4°C 47.0°F8.3°C 93% Calm Calm 1.2 mph1.9 kmh 30.31 in1026.4 mb - 0.00 in0.0 mm 0.00 in0.0 mm
06:40 AM 48.9°F9.4°C 46.7°F8.2°C 92% Calm Calm 3.5 mph5.6 kmh 30.31 in1026.4 mb - 0.00 in0.0 mm 0.00 in0.0 mm
06:30 AM 49.0°F9.4°C 46.8°F8.2°C 92% Calm Calm 3.5 mph5.6 kmh 30.31 in1026.4 mb - 0.00 in0.0 mm 0.00 in0.0 mm
06:20 AM 49.2°F9.6°C 47.0°F8.3°C 92% Calm Calm -- 30.30 in1026.1 mb - 0.00 in0.0 mm 0.00 in0.0 mm
06:10 AM 49.2°F9.6°C 47.0°F8.3°C 92% Calm Calm -- 30.30 in1026.1 mb - 0.00 in0.0 mm 0.00 in0.0 mm
06:00 AM 49.4°F9.7°C 47.2°F8.4°C 92% Calm Calm -- 30.30 in1026.1 mb - 0.00 in0.0 mm 0.00 in0.0 mm
05:50 AM 49.5°F9.7°C 47.3°F8.5°C 92% Calm Calm 1.2 mph1.9 kmh 30.30 in1026.1 mb - 0.00 in0.0 mm 0.00 in0.0 mm
05:40 AM 49.7°F9.8°C 47.5°F8.6°C 92% Calm Calm 3.5 mph5.6 kmh 30.30 in1026.1 mb - 0.00 in0.0 mm 0.00 in0.0 mm
05:30 AM 49.9°F9.9°C 47.4°F8.6°C 91% 1.2 mph N1.9 kmh N 5.8 mph9.3 kmh 30.30 in1026.1 mb - 0.00 in0.0 mm 0.00 in0.0 mm
05:20 AM 50.1°F10.1°C 47.6°F8.7°C 91% Calm Calm 2.3 mph3.7 kmh 30.29 in1025.7 mb - 0.00 in0.0 mm 0.00 in0.0 mm
05:10 AM 50.4°F10.2°C 47.9°F8.8°C 91% Calm Calm -- 30.29 in1025.7 mb - 0.00 in0.0 mm 0.00 in0.0 mm
05:00 AM 50.7°F10.4°C 48.1°F8.9°C 91% Calm Calm 1.2 mph1.9 kmh 30.29 in1025.7 mb - 0.00 in0.0 mm 0.00 in0.0 mm
04:50 AM 51.0°F10.6°C 48.2°F9.0°C 90% Calm Calm 1.2 mph1.9 kmh 30.29 in1025.7 mb - 0.00 in0.0 mm 0.00 in0.0 mm
04:40 AM 51.3°F10.7°C 48.5°F9.2°C 90% Calm Calm 3.5 mph5.6 kmh 30.29 in1025.7 mb - 0.00 in0.0 mm 0.00 in0.0 mm
04:30 AM 51.6°F10.9°C 48.8°F9.3°C 90% Calm Calm -- 30.29 in1025.7 mb - 0.00 in0.0 mm 0.00 in0.0 mm
04:20 AM 51.8°F11.0°C 49.0°F9.4°C 90% Calm Calm 2.3 mph3.7 kmh 30.29 in1025.7 mb - 0.00 in0.0 mm 0.00 in0.0 mm
04:10 AM 52.0°F11.1°C 49.2°F9.6°C 90% 1.2 mph N1.9 kmh N 5.8 mph9.3 kmh 30.29 in1025.7 mb - 0.00 in0.0 mm 0.00 in0.0 mm
04:00 AM 52.2°F11.2°C 49.4°F9.7°C 90% Calm Calm 2.3 mph3.7 kmh 30.29 in1025.7 mb - 0.00 in0.0 mm 0.00 in0.0 mm
03:50 AM 52.4°F11.3°C 49.6°F9.8°C 90% 3.5 mph N5.6 kmh N 9.2 mph14.8 kmh 30.28 in1025.4 mb - 0.00 in0.0 mm 0.00 in0.0 mm
03:40 AM 52.6°F11.4°C 49.8°F9.9°C 90% 2.3 mph N3.7 kmh N 3.5 mph5.6 kmh 30.29 in1025.7 mb - 0.00 in0.0 mm 0.00 in0.0 mm
03:30 AM 52.8°F11.6°C 49.6°F9.8°C 89% Calm Calm 3.5 mph5.6 kmh 30.28 in1025.4 mb - 0.00 in0.0 mm 0.00 in0.0 mm
03:20 AM 52.9°F11.6°C 50.0°F10.0°C 90% 1.2 mph N1.9 kmh N 4.6 mph7.4 kmh 30.29 in1025.7 mb - 0.00 in0.0 mm 0.00 in0.0 mm
03:10 AM 53.1°F11.7°C 50.2°F10.1°C 90% Calm Calm -- 30.29 in1025.7 mb - 0.00 in0.0 mm 0.00 in0.0 mm
03:00 AM 53.2°F11.8°C 50.0°F10.0°C 89% 1.2 mph NNW1.9 kmh NNW 4.6 mph7.4 kmh 30.29 in1025.7 mb - 0.00 in0.0 mm 0.00 in0.0 mm
02:50 AM 53.3°F11.8°C 50.1°F10.1°C 89% 2.3 mph N3.7 kmh N 4.6 mph7.4 kmh 30.29 in1025.7 mb - 0.00 in0.0 mm 0.00 in0.0 mm
02:40 AM 53.5°F11.9°C 50.3°F10.2°C 89% Calm Calm 2.3 mph3.7 kmh 30.29 in1025.7 mb - 0.00 in0.0 mm 0.00 in0.0 mm
02:30 AM 53.6°F12.0°C 50.4°F10.2°C 89% 3.5 mph N5.6 kmh N 6.9 mph11.1 kmh 30.28 in1025.4 mb - 0.00 in0.0 mm 0.00 in0.0 mm
02:20 AM 53.7°F12.1°C 50.5°F10.3°C 89% 4.6 mph N7.4 kmh N 8.1 mph13.0 kmh 30.29 in1025.7 mb - 0.00 in0.0 mm 0.00 in0.0 mm
02:10 AM 53.8°F12.1°C 50.6°F10.3°C 89% 1.2 mph N1.9 kmh N 4.6 mph7.4 kmh 30.28 in1025.4 mb - 0.00 in0.0 mm 0.00 in0.0 mm
02:00 AM 53.9°F12.2°C 50.7°F10.4°C 89% 2.3 mph N3.7 kmh N 5.8 mph9.3 kmh 30.28 in1025.4 mb - 0.00 in0.0 mm 0.00 in0.0 mm
01:50 AM 54.0°F12.2°C 50.8°F10.4°C 89% 1.2 mph N1.9 kmh N 2.3 mph3.7 kmh 30.28 in1025.4 mb - 0.00 in0.0 mm 0.00 in0.0 mm
01:40 AM 54.1°F12.3°C 50.9°F10.5°C 89% 4.6 mph N7.4 kmh N 6.9 mph11.1 kmh 30.28 in1025.4 mb - 0.00 in0.0 mm 0.00 in0.0 mm
01:30 AM 54.2°F12.3°C 51.0°F10.6°C 89% 1.2 mph NNW1.9 kmh NNW 2.3 mph3.7 kmh 30.27 in1025.1 mb - 0.00 in0.0 mm 0.00 in0.0 mm
01:20 AM 54.3°F12.4°C 51.1°F10.6°C 89% 1.2 mph N1.9 kmh N 4.6 mph7.4 kmh 30.27 in1025.1 mb - 0.00 in0.0 mm 0.00 in0.0 mm
01:10 AM 54.4°F12.4°C 51.2°F10.7°C 89% 2.3 mph N3.7 kmh N 6.9 mph11.1 kmh 30.27 in1025.1 mb - 0.00 in0.0 mm 0.00 in0.0 mm
01:00 AM 54.5°F12.5°C 51.3°F10.7°C 89% 1.2 mph N1.9 kmh N 4.6 mph7.4 kmh 30.27 in1025.1 mb - 0.00 in0.0 mm 0.00 in0.0 mm
12:50 AM 54.6°F12.6°C 51.4°F10.8°C 89% 1.2 mph N1.9 kmh N 5.8 mph9.3 kmh 30.27 in1025.1 mb - 0.00 in0.0 mm 0.00 in0.0 mm
12:40 AM 54.8°F12.7°C 51.6°F10.9°C 89% 4.6 mph N7.4 kmh N 5.8 mph9.3 kmh 30.27 in1025.1 mb - 0.00 in0.0 mm 0.00 in0.0 mm
12:30 AM 54.9°F12.7°C 51.7°F10.9°C 89% Calm Calm 4.6 mph7.4 kmh 30.27 in1025.1 mb - 0.00 in0.0 mm 0.00 in0.0 mm
12:20 AM 55.0°F12.8°C 51.8°F11.0°C 89% 2.3 mph N3.7 kmh N 9.2 mph14.8 kmh 30.27 in1025.1 mb - 0.00 in0.0 mm 0.00 in0.0 mm
12:10 AM 55.1°F12.8°C 51.9°F11.1°C 89% 3.5 mph N5.6 kmh N 8.1 mph13.0 kmh 30.27 in1025.1 mb - 0.00 in0.0 mm 0.00 in0.0 mm
12:00 AM 55.1°F12.8°C 51.9°F11.1°C 89% 2.3 mph N3.7 kmh N 5.8 mph9.3 kmh 30.27 in1025.1 mb - 0.00 in0.0 mm 0.00 in0.0 mm